sensor_id;sensor_type;location;lat;lon;timestamp;pressure;altitude;pressure_sealevel;temperature;humidity
61506;BME280;47366;51.916;4.574;2023-03-03T00:00:45;102654.25;;;2.92;82.20
61506;BME280;47366;51.916;4.574;2023-03-03T00:03:14;102661.41;;;2.91;82.24
61506;BME280;47366;51.916;4.574;2023-03-03T00:05:40;102659.63;;;2.93;82.04
61506;BME280;47366;51.916;4.574;2023-03-03T00:08:07;102656.94;;;2.93;81.84
61506;BME280;47366;51.916;4.574;2023-03-03T00:10:32;102656.03;;;2.93;81.90
61506;BME280;47366;51.916;4.574;2023-03-03T00:12:57;102659.59;;;2.87;81.27
61506;BME280;47366;51.916;4.574;2023-03-03T00:15:25;102655.16;;;2.88;82.53
61506;BME280;47366;51.916;4.574;2023-03-03T00:17:51;102649.81;;;2.86;82.75
61506;BME280;47366;51.916;4.574;2023-03-03T00:20:36;102673.88;;;2.88;82.13
61506;BME280;47366;51.916;4.574;2023-03-03T00:25:33;102663.19;;;2.89;82.48
61506;BME280;47366;51.916;4.574;2023-03-03T00:28:06;102666.75;;;2.84;82.68
61506;BME280;47366;51.916;4.574;2023-03-03T00:30:37;102661.38;;;2.85;82.73
61506;BME280;47366;51.916;4.574;2023-03-03T00:33:13;102653.38;;;2.84;82.18
61506;BME280;47366;51.916;4.574;2023-03-03T00:35:43;102664.97;;;2.84;82.10
61506;BME280;47366;51.916;4.574;2023-03-03T00:38:13;102671.22;;;2.82;81.91
61506;BME280;47366;51.916;4.574;2023-03-03T00:40:39;102669.44;;;2.79;82.29
61506;BME280;47366;51.916;4.574;2023-03-03T00:43:35;102673.91;;;2.77;82.82
61506;BME280;47366;51.916;4.574;2023-03-03T00:46:01;102675.69;;;2.76;82.20
61506;BME280;47366;51.916;4.574;2023-03-03T00:48:45;102669.41;;;2.73;82.07
61506;BME280;47366;51.916;4.574;2023-03-03T00:51:29;102669.41;;;2.68;83.31
61506;BME280;47366;51.916;4.574;2023-03-03T00:53:55;102657.84;;;2.65;82.86
61506;BME280;47366;51.916;4.574;2023-03-03T00:56:21;102664.06;;;2.65;82.90
61506;BME280;47366;51.916;4.574;2023-03-03T00:58:46;102660.50;;;2.66;82.71
61506;BME280;47366;51.916;4.574;2023-03-03T01:01:13;102654.25;;;2.64;82.78
61506;BME280;47366;51.916;4.574;2023-03-03T01:03:38;102656.94;;;2.63;83.06
61506;BME280;47366;51.916;4.574;2023-03-03T01:06:04;102662.28;;;2.64;83.02
61506;BME280;47366;51.916;4.574;2023-03-03T01:08:29;102663.16;;;2.66;82.96
61506;BME280;47366;51.916;4.574;2023-03-03T01:10:56;102666.75;;;2.65;83.53
61506;BME280;47366;51.916;4.574;2023-03-03T01:13:26;102656.03;;;2.61;83.13
61506;BME280;47366;51.916;4.574;2023-03-03T01:15:53;102668.53;;;2.60;83.88
61506;BME280;47366;51.916;4.574;2023-03-03T01:18:18;102668.53;;;2.59;84.08
61506;BME280;47366;51.916;4.574;2023-03-03T01:20:44;102668.50;;;2.57;84.67
61506;BME280;47366;51.916;4.574;2023-03-03T01:23:09;102667.63;;;2.60;84.10
61506;BME280;47366;51.916;4.574;2023-03-03T01:25:35;102673.00;;;2.58;84.66
61506;BME280;47366;51.916;4.574;2023-03-03T01:28:00;102670.28;;;2.57;84.19
61506;BME280;47366;51.916;4.574;2023-03-03T01:30:26;102672.09;;;2.56;84.79
61506;BME280;47366;51.916;4.574;2023-03-03T01:32:52;102667.63;;;2.52;84.52
61506;BME280;47366;51.916;4.574;2023-03-03T01:35:17;102663.16;;;2.52;84.27
61506;BME280;47366;51.916;4.574;2023-03-03T01:37:42;102658.72;;;2.53;84.27
61506;BME280;47366;51.916;4.574;2023-03-03T01:40:14;102660.50;;;2.51;84.88
61506;BME280;47366;51.916;4.574;2023-03-03T01:42:40;102669.41;;;2.53;84.98
61506;BME280;47366;51.916;4.574;2023-03-03T01:46:18;102665.84;;;2.49;85.94
61506;BME280;47366;51.916;4.574;2023-03-03T01:48:30;102667.63;;;2.49;85.41
61506;BME280;47366;51.916;4.574;2023-03-03T01:51:00;102668.50;;;2.49;84.92
61506;BME280;47366;51.916;4.574;2023-03-03T01:53:33;102671.19;;;2.49;84.89
61506;BME280;47366;51.916;4.574;2023-03-03T01:56:02;102669.41;;;2.48;84.38
61506;BME280;47366;51.916;4.574;2023-03-03T01:58:33;102670.28;;;2.52;84.71
61506;BME280;47366;51.916;4.574;2023-03-03T02:01:06;102672.97;;;2.47;84.65
61506;BME280;47366;51.916;4.574;2023-03-03T02:03:33;102663.16;;;2.43;85.31
61506;BME280;47366;51.916;4.574;2023-03-03T02:06:02;102669.41;;;2.44;84.29
61506;BME280;47366;51.916;4.574;2023-03-03T02:11:21;102664.03;;;2.41;84.15
61506;BME280;47366;51.916;4.574;2023-03-03T02:13:46;102670.28;;;2.43;84.95
61506;BME280;47366;51.916;4.574;2023-03-03T02:16:11;102666.72;;;2.42;84.69
61506;BME280;47366;51.916;4.574;2023-03-03T02:18:37;102664.03;;;2.41;83.39
61506;BME280;47366;51.916;4.574;2023-03-03T02:21:07;102671.16;;;2.40;84.86
61506;BME280;47366;51.916;4.574;2023-03-03T02:26:26;102657.81;;;2.39;85.20
61506;BME280;47366;51.916;4.574;2023-03-03T02:28:52;102656.91;;;2.35;85.10
61506;BME280;47366;51.916;4.574;2023-03-03T02:31:21;102664.94;;;2.40;84.43
61506;BME280;47366;51.916;4.574;2023-03-03T02:33:48;102660.47;;;2.39;83.99
61506;BME280;47366;51.916;4.574;2023-03-03T02:36:25;102664.06;;;2.36;85.17
61506;BME280;47366;51.916;4.574;2023-03-03T02:41:48;102663.16;;;2.34;84.72
61506;BME280;47366;51.916;4.574;2023-03-03T02:44:24;102651.53;;;2.24;83.95
61506;BME280;47366;51.916;4.574;2023-03-03T02:46:52;102654.22;;;2.20;83.42
61506;BME280;47366;51.916;4.574;2023-03-03T02:49:21;102670.22;;;2.17;83.59
61506;BME280;47366;51.916;4.574;2023-03-03T02:51:47;102656.84;;;2.10;83.92
61506;BME280;47366;51.916;4.574;2023-03-03T02:54:14;102665.75;;;2.11;84.26
61506;BME280;47366;51.916;4.574;2023-03-03T02:56:40;102660.44;;;2.12;85.67
61506;BME280;47366;51.916;4.574;2023-03-03T02:59:05;102658.63;;;2.13;83.76
61506;BME280;47366;51.916;4.574;2023-03-03T03:01:31;102661.31;;;2.18;84.25
61506;BME280;47366;51.916;4.574;2023-03-03T03:04:03;102658.66;;;2.18;85.30
61506;BME280;47366;51.916;4.574;2023-03-03T03:06:30;102668.44;;;2.19;84.75
61506;BME280;47366;51.916;4.574;2023-03-03T03:08:55;102665.78;;;2.16;84.68
61506;BME280;47366;51.916;4.574;2023-03-03T03:11:21;102664.88;;;2.17;84.99
61506;BME280;47366;51.916;4.574;2023-03-03T03:13:46;102663.97;;;2.16;84.33
61506;BME280;47366;51.916;4.574;2023-03-03T03:16:12;102668.44;;;2.16;84.98
61506;BME280;47366;51.916;4.574;2023-03-03T03:18:37;102663.09;;;2.19;85.29
61506;BME280;47366;51.916;4.574;2023-03-03T03:21:08;102667.56;;;2.20;85.83
61506;BME280;47366;51.916;4.574;2023-03-03T03:23:34;102667.56;;;2.15;85.59
61506;BME280;47366;51.916;4.574;2023-03-03T03:26:00;102670.22;;;2.17;85.73
61506;BME280;47366;51.916;4.574;2023-03-03T03:28:25;102677.38;;;2.18;86.89
61506;BME280;47366;51.916;4.574;2023-03-03T03:30:51;102670.22;;;2.15;85.96
61506;BME280;47366;51.916;4.574;2023-03-03T03:33:16;102668.44;;;2.12;86.73
61506;BME280;47366;51.916;4.574;2023-03-03T03:35:42;102674.69;;;2.16;87.02
61506;BME280;47366;51.916;4.574;2023-03-03T03:38:10;102677.38;;;2.18;86.41
61506;BME280;47366;51.916;4.574;2023-03-03T03:40:36;102672.91;;;2.18;87.36
61506;BME280;47366;51.916;4.574;2023-03-03T03:43:02;102672.91;;;2.20;86.42
61506;BME280;47366;51.916;4.574;2023-03-03T03:45:27;102683.63;;;2.20;86.08
61506;BME280;47366;51.916;4.574;2023-03-03T03:47:52;102684.50;;;2.17;86.11
61506;BME280;47366;51.916;4.574;2023-03-03T03:50:17;102684.47;;;2.12;85.82
61506;BME280;47366;51.916;4.574;2023-03-03T03:52:43;102687.16;;;2.19;85.97
61506;BME280;47366;51.916;4.574;2023-03-03T03:55:09;102686.28;;;2.15;86.39
61506;BME280;47366;51.916;4.574;2023-03-03T03:57:35;102684.47;;;2.12;86.18
61506;BME280;47366;51.916;4.574;2023-03-03T04:00:00;102682.69;;;2.11;87.20
61506;BME280;47366;51.916;4.574;2023-03-03T04:02:26;102681.78;;;2.14;86.79
61506;BME280;47366;51.916;4.574;2023-03-03T04:04:51;102688.03;;;2.13;87.07
61506;BME280;47366;51.916;4.574;2023-03-03T04:07:16;102689.78;;;2.09;87.00
61506;BME280;47366;51.916;4.574;2023-03-03T04:09:42;102691.56;;;2.04;86.78
61506;BME280;47366;51.916;4.574;2023-03-03T04:12:07;102694.22;;;1.98;86.60
61506;BME280;47366;51.916;4.574;2023-03-03T04:14:32;102690.66;;;1.96;86.87
61506;BME280;47366;51.916;4.574;2023-03-03T04:16:58;102700.44;;;1.94;86.83
61506;BME280;47366;51.916;4.574;2023-03-03T04:19:23;102694.19;;;1.90;87.97
61506;BME280;47366;51.916;4.574;2023-03-03T04:21:48;102689.78;;;1.96;87.32
61506;BME280;47366;51.916;4.574;2023-03-03T04:24:14;102696.88;;;1.97;88.59
61506;BME280;47366;51.916;4.574;2023-03-03T04:26:40;102698.69;;;1.99;87.81
61506;BME280;47366;51.916;4.574;2023-03-03T04:29:05;102702.22;;;1.97;87.69
61506;BME280;47366;51.916;4.574;2023-03-03T04:31:31;102703.13;;;1.96;88.43
61506;BME280;47366;51.916;4.574;2023-03-03T04:33:56;102704.91;;;1.97;87.31
61506;BME280;47366;51.916;4.574;2023-03-03T04:36:22;102697.75;;;1.92;88.50
61506;BME280;47366;51.916;4.574;2023-03-03T04:38:48;102704.00;;;1.98;88.33
61506;BME280;47366;51.916;4.574;2023-03-03T04:41:13;102709.38;;;1.96;87.95
61506;BME280;47366;51.916;4.574;2023-03-03T04:43:39;102703.13;;;1.97;87.49
61506;BME280;47366;51.916;4.574;2023-03-03T04:46:04;102712.06;;;2.01;87.70
61506;BME280;47366;51.916;4.574;2023-03-03T04:48:30;102703.97;;;1.93;87.24
61506;BME280;47366;51.916;4.574;2023-03-03T04:50:55;102713.78;;;1.92;88.10
61506;BME280;47366;51.916;4.574;2023-03-03T04:53:21;102704.88;;;1.90;88.19
61506;BME280;47366;51.916;4.574;2023-03-03T04:55:49;102705.75;;;1.92;88.57
61506;BME280;47366;51.916;4.574;2023-03-03T04:58:14;102712.03;;;1.96;88.22
61506;BME280;47366;51.916;4.574;2023-03-03T05:00:40;102696.88;;;1.92;88.19
61506;BME280;47366;51.916;4.574;2023-03-03T05:03:05;102704.91;;;1.97;88.24
61506;BME280;47366;51.916;4.574;2023-03-03T05:05:31;102709.38;;;1.96;87.99
61506;BME280;47366;51.916;4.574;2023-03-03T05:07:56;102711.13;;;1.94;87.79
61506;BME280;47366;51.916;4.574;2023-03-03T05:10:21;102717.38;;;1.99;87.22
61506;BME280;47366;51.916;4.574;2023-03-03T05:12:47;102720.06;;;1.96;87.79
61506;BME280;47366;51.916;4.574;2023-03-03T05:15:12;102719.16;;;1.99;88.16
61506;BME280;47366;51.916;4.574;2023-03-03T05:17:38;102716.50;;;2.02;87.92
61506;BME280;47366;51.916;4.574;2023-03-03T05:20:04;102720.06;;;2.04;88.11
61506;BME280;47366;51.916;4.574;2023-03-03T05:22:30;102722.72;;;2.02;88.12
61506;BME280;47366;51.916;4.574;2023-03-03T05:24:55;102717.41;;;2.04;87.88
61506;BME280;47366;51.916;4.574;2023-03-03T05:27:21;102715.66;;;2.07;88.64
61506;BME280;47366;51.916;4.574;2023-03-03T05:29:47;102712.06;;;2.04;88.28
61506;BME280;47366;51.916;4.574;2023-03-03T05:32:12;102718.31;;;2.10;88.71
61506;BME280;47366;51.916;4.574;2023-03-03T05:34:38;102716.53;;;2.06;88.01
61506;BME280;47366;51.916;4.574;2023-03-03T05:37:03;102715.66;;;2.07;88.28
61506;BME280;47366;51.916;4.574;2023-03-03T05:39:31;102716.53;;;2.06;88.91
61506;BME280;47366;51.916;4.574;2023-03-03T05:41:57;102723.66;;;2.09;88.42
61506;BME280;47366;51.916;4.574;2023-03-03T05:44:24;102722.78;;;2.05;88.44
61506;BME280;47366;51.916;4.574;2023-03-03T05:46:49;102726.34;;;2.10;89.03
61506;BME280;47366;51.916;4.574;2023-03-03T05:49:15;102717.44;;;2.10;87.67
61506;BME280;47366;51.916;4.574;2023-03-03T05:51:40;102716.53;;;2.09;88.11
61506;BME280;47366;51.916;4.574;2023-03-03T05:54:05;102719.22;;;2.14;88.10
61506;BME280;47366;51.916;4.574;2023-03-03T05:56:31;102722.81;;;2.18;88.44
61506;BME280;47366;51.916;4.574;2023-03-03T05:58:56;102718.34;;;2.18;88.57
61506;BME280;47366;51.916;4.574;2023-03-03T06:01:21;102722.81;;;2.21;88.63
61506;BME280;47366;51.916;4.574;2023-03-03T06:03:47;102728.19;;;2.25;89.29
61506;BME280;47366;51.916;4.574;2023-03-03T06:06:12;102722.81;;;2.21;89.76
61506;BME280;47366;51.916;4.574;2023-03-03T06:08:38;102724.63;;;2.22;88.22
61506;BME280;47366;51.916;4.574;2023-03-03T06:11:04;102720.13;;;2.21;88.41
61506;BME280;47366;51.916;4.574;2023-03-03T06:13:29;102721.03;;;2.18;89.13
61506;BME280;47366;51.916;4.574;2023-03-03T06:15:54;102718.31;;;2.17;88.70
61506;BME280;47366;51.916;4.574;2023-03-03T06:18:20;102733.50;;;2.19;87.95
61506;BME280;47366;51.916;4.574;2023-03-03T06:20:50;102730.81;;;2.18;88.40
61506;BME280;47366;51.916;4.574;2023-03-03T06:23:15;102741.50;;;2.19;88.75
61506;BME280;47366;51.916;4.574;2023-03-03T06:25:41;102737.97;;;2.17;89.01
61506;BME280;47366;51.916;4.574;2023-03-03T06:28:06;102735.25;;;2.14;89.90
61506;BME280;47366;51.916;4.574;2023-03-03T06:30:32;102737.94;;;2.19;88.95
61506;BME280;47366;51.916;4.574;2023-03-03T06:32:57;102740.63;;;2.20;89.58
61506;BME280;47366;51.916;4.574;2023-03-03T06:35:23;102744.19;;;2.19;89.84
61506;BME280;47366;51.916;4.574;2023-03-03T06:37:48;102742.41;;;2.21;89.41
61506;BME280;47366;51.916;4.574;2023-03-03T06:40:15;102739.72;;;2.18;89.58
61506;BME280;47366;51.916;4.574;2023-03-03T06:42:40;102750.44;;;2.23;89.22
61506;BME280;47366;51.916;4.574;2023-03-03T06:45:06;102756.69;;;2.25;89.54
61506;BME280;47366;51.916;4.574;2023-03-03T06:47:31;102757.59;;;2.22;90.16
61506;BME280;47366;51.916;4.574;2023-03-03T06:49:58;102762.94;;;2.28;89.69
61506;BME280;47366;51.916;4.574;2023-03-03T06:52:25;102759.38;;;2.25;88.89
61506;BME280;47366;51.916;4.574;2023-03-03T06:54:56;102772.72;;;2.26;89.28
61506;BME280;47366;51.916;4.574;2023-03-03T06:57:26;102771.84;;;2.26;88.65
61506;BME280;47366;51.916;4.574;2023-03-03T06:59:55;102773.59;;;2.24;89.53
61506;BME280;47366;51.916;4.574;2023-03-03T07:02:21;102778.06;;;2.23;89.39
61506;BME280;47366;51.916;4.574;2023-03-03T07:04:47;102777.19;;;2.23;89.41
61506;BME280;47366;51.916;4.574;2023-03-03T07:07:19;102775.41;;;2.25;90.33
61506;BME280;47366;51.916;4.574;2023-03-03T07:09:47;102781.66;;;2.25;90.34
61506;BME280;47366;51.916;4.574;2023-03-03T07:12:17;102796.81;;;2.31;89.85
61506;BME280;47366;51.916;4.574;2023-03-03T07:14:46;102796.81;;;2.31;90.11
61506;BME280;47366;51.916;4.574;2023-03-03T07:17:18;102794.16;;;2.32;90.32
61506;BME280;47366;51.916;4.574;2023-03-03T07:19:46;102793.25;;;2.32;90.02
61506;BME280;47366;51.916;4.574;2023-03-03T07:22:20;102799.53;;;2.34;90.51
61506;BME280;47366;51.916;4.574;2023-03-03T07:24:48;102790.56;;;2.33;90.11
61506;BME280;47366;51.916;4.574;2023-03-03T07:27:28;102791.47;;;2.36;89.66
61506;BME280;47366;51.916;4.574;2023-03-03T07:30:16;102797.75;;;2.36;90.08
61506;BME280;47366;51.916;4.574;2023-03-03T07:32:45;102787.03;;;2.38;89.90
61506;BME280;47366;51.916;4.574;2023-03-03T07:35:34;102807.53;;;2.40;90.55
61506;BME280;47366;51.916;4.574;2023-03-03T07:38:01;102796.84;;;2.37;90.40
61506;BME280;47366;51.916;4.574;2023-03-03T07:40:34;102802.19;;;2.40;90.31
61506;BME280;47366;51.916;4.574;2023-03-03T07:43:12;102801.31;;;2.43;89.97
61506;BME280;47366;51.916;4.574;2023-03-03T07:45:42;102800.41;;;2.41;90.50
61506;BME280;47366;51.916;4.574;2023-03-03T07:48:22;102804.88;;;2.42;89.55
61506;BME280;47366;51.916;4.574;2023-03-03T07:50:49;102811.13;;;2.45;89.97
61506;BME280;47366;51.916;4.574;2023-03-03T07:53:29;102818.28;;;2.46;89.52
61506;BME280;47366;51.916;4.574;2023-03-03T07:55:59;102811.16;;;2.44;89.95
61506;BME280;47366;51.916;4.574;2023-03-03T07:58:38;102816.50;;;2.47;89.75
61506;BME280;47366;51.916;4.574;2023-03-03T08:04:09;102819.16;;;2.44;89.92
61506;BME280;47366;51.916;4.574;2023-03-03T08:06:46;102823.63;;;2.46;89.62
61506;BME280;47366;51.916;4.574;2023-03-03T08:09:23;102833.44;;;2.55;89.94
61506;BME280;47366;51.916;4.574;2023-03-03T08:14:36;102835.25;;;2.56;89.50
61506;BME280;47366;51.916;4.574;2023-03-03T08:17:13;102836.16;;;2.60;89.57
61506;BME280;47366;51.916;4.574;2023-03-03T08:19:41;102838.84;;;2.61;90.30
61506;BME280;47366;51.916;4.574;2023-03-03T08:22:33;102847.78;;;2.65;90.77
61506;BME280;47366;51.916;4.574;2023-03-03T08:25:03;102854.03;;;2.65;89.79
61506;BME280;47366;51.916;4.574;2023-03-03T08:27:28;102853.13;;;2.63;90.26
61506;BME280;47366;51.916;4.574;2023-03-03T08:29:54;102853.09;;;2.62;89.04
61506;BME280;47366;51.916;4.574;2023-03-03T08:32:20;102863.81;;;2.66;89.87
61506;BME280;47366;51.916;4.574;2023-03-03T08:34:45;102859.34;;;2.67;89.75
61506;BME280;47366;51.916;4.574;2023-03-03T08:37:11;102862.94;;;2.66;89.25
61506;BME280;47366;51.916;4.574;2023-03-03T08:39:36;102862.97;;;2.72;89.63
61506;BME280;47366;51.916;4.574;2023-03-03T08:42:01;102857.59;;;2.69;90.04
61506;BME280;47366;51.916;4.574;2023-03-03T08:44:27;102867.44;;;2.78;89.76
61506;BME280;47366;51.916;4.574;2023-03-03T08:46:52;102857.63;;;2.81;89.66
61506;BME280;47366;51.916;4.574;2023-03-03T08:49:17;102853.19;;;2.85;89.53
61506;BME280;47366;51.916;4.574;2023-03-03T08:51:43;102863.00;;;2.84;90.43
61506;BME280;47366;51.916;4.574;2023-03-03T08:54:08;102863.91;;;2.88;90.24
61506;BME280;47366;51.916;4.574;2023-03-03T08:56:34;102865.69;;;2.95;89.86
61506;BME280;47366;51.916;4.574;2023-03-03T08:58:59;102870.19;;;3.01;89.04
61506;BME280;47366;51.916;4.574;2023-03-03T09:01:24;102873.75;;;3.07;88.97
61506;BME280;47366;51.916;4.574;2023-03-03T09:03:50;102867.50;;;3.10;89.05
61506;BME280;47366;51.916;4.574;2023-03-03T09:06:15;102870.22;;;3.13;89.45
61506;BME280;47366;51.916;4.574;2023-03-03T09:08:41;102866.63;;;3.17;88.89
61506;BME280;47366;51.916;4.574;2023-03-03T09:11:11;102861.28;;;3.22;88.63
61506;BME280;47366;51.916;4.574;2023-03-03T09:13:37;102866.66;;;3.28;88.63
61506;BME280;47366;51.916;4.574;2023-03-03T09:16:10;102853.28;;;3.32;88.34
61506;BME280;47366;51.916;4.574;2023-03-03T09:18:37;102858.66;;;3.49;88.06
61506;BME280;47366;51.916;4.574;2023-03-03T09:21:21;102845.25;;;3.54;87.30
61506;BME280;47366;51.916;4.574;2023-03-03T09:23:56;102861.31;;;3.69;87.54
61506;BME280;47366;51.916;4.574;2023-03-03T09:26:45;102864.91;;;3.74;87.07
61506;BME280;47366;51.916;4.574;2023-03-03T09:31:51;102872.03;;;3.85;87.56
61506;BME280;47366;51.916;4.574;2023-03-03T09:37:32;102865.69;;;4.32;86.62
61506;BME280;47366;51.916;4.574;2023-03-03T09:40:14;102870.91;;;4.68;85.59
61506;BME280;47366;51.916;4.574;2023-03-03T09:46:06;102868.94;;;5.03;84.84
61506;BME280;47366;51.916;4.574;2023-03-03T09:48:54;102866.09;;;5.29;83.93
61506;BME280;47366;51.916;4.574;2023-03-03T09:54:12;102866.19;;;6.22;81.41
61506;BME280;47366;51.916;4.574;2023-03-03T09:56:48;102861.06;;;6.74;80.31
61506;BME280;47366;51.916;4.574;2023-03-03T09:59:22;102869.56;;;7.12;78.75
61506;BME280;47366;51.916;4.574;2023-03-03T10:11:31;102862.25;;;8.25;73.52
61506;BME280;47366;51.916;4.574;2023-03-03T10:16:39;102850.06;;;8.51;72.07
61506;BME280;47366;51.916;4.574;2023-03-03T10:22:12;102853.59;;;8.95;71.93
61506;BME280;47366;51.916;4.574;2023-03-03T10:27:42;102854.13;;;9.50;70.26
61506;BME280;47366;51.916;4.574;2023-03-03T10:30:39;102851.88;;;9.67;68.66
61506;BME280;47366;51.916;4.574;2023-03-03T10:33:29;102850.50;;;9.87;68.30
61506;BME280;47366;51.916;4.574;2023-03-03T10:38:41;102848.72;;;10.18;68.52
61506;BME280;47366;51.916;4.574;2023-03-03T10:46:58;102851.66;;;10.11;68.66
61506;BME280;47366;51.916;4.574;2023-03-03T10:55:30;102862.34;;;10.15;66.88
61506;BME280;47366;51.916;4.574;2023-03-03T11:00:34;102861.03;;;10.63;66.37
61506;BME280;47366;51.916;4.574;2023-03-03T11:06:05;102849.59;;;10.83;65.43
61506;BME280;47366;51.916;4.574;2023-03-03T11:08:47;102846.78;;;10.56;67.10
61506;BME280;47366;51.916;4.574;2023-03-03T11:11:18;102844.91;;;10.58;64.64
61506;BME280;47366;51.916;4.574;2023-03-03T11:13:50;102850.03;;;10.68;65.24
61506;BME280;47366;51.916;4.574;2023-03-03T11:19:31;102842.09;;;11.21;65.16
61506;BME280;47366;51.916;4.574;2023-03-03T11:22:18;102835.13;;;11.40;63.35
61506;BME280;47366;51.916;4.574;2023-03-03T11:25:12;102835.13;;;11.67;63.52
61506;BME280;47366;51.916;4.574;2023-03-03T11:33:11;102842.50;;;11.90;60.59
61506;BME280;47366;51.916;4.574;2023-03-03T11:36:10;102836.56;;;11.77;60.78
61506;BME280;47366;51.916;4.574;2023-03-03T11:41:09;102838.72;;;11.41;62.45
61506;BME280;47366;51.916;4.574;2023-03-03T11:46:12;102833.66;;;11.30;61.92
61506;BME280;47366;51.916;4.574;2023-03-03T11:51:43;102832.25;;;11.72;58.39
61506;BME280;47366;51.916;4.574;2023-03-03T11:54:18;102819.75;;;11.94;58.38
61506;BME280;47366;51.916;4.574;2023-03-03T11:56:46;102819.31;;;12.06;59.25
61506;BME280;47366;51.916;4.574;2023-03-03T11:59:40;102813.34;;;12.20;57.28
61506;BME280;47366;51.916;4.574;2023-03-03T12:05:16;102806.69;;;12.29;57.07
61506;BME280;47366;51.916;4.574;2023-03-03T12:10:36;102805.47;;;12.38;56.56
61506;BME280;47366;51.916;4.574;2023-03-03T12:13:18;102809.94;;;12.39;56.96
61506;BME280;47366;51.916;4.574;2023-03-03T12:15:54;102810.09;;;12.59;57.36
61506;BME280;47366;51.916;4.574;2023-03-03T12:18:34;102808.13;;;12.63;57.06
61506;BME280;47366;51.916;4.574;2023-03-03T12:21:28;102808.81;;;12.21;57.22
61506;BME280;47366;51.916;4.574;2023-03-03T12:27:12;102799.81;;;11.94;56.59
61506;BME280;47366;51.916;4.574;2023-03-03T12:37:47;102779.38;;;12.32;55.68
61506;BME280;47366;51.916;4.574;2023-03-03T12:40:27;102776.09;;;12.47;54.36
61506;BME280;47366;51.916;4.574;2023-03-03T12:43:18;102777.59;;;12.56;53.36
61506;BME280;47366;51.916;4.574;2023-03-03T12:48:39;102777.41;;;12.37;55.30
61506;BME280;47366;51.916;4.574;2023-03-03T12:54:03;102767.97;;;11.47;57.55
61506;BME280;47366;51.916;4.574;2023-03-03T12:56:47;102789.84;;;11.14;57.45
61506;BME280;47366;51.916;4.574;2023-03-03T12:59:48;102789.06;;;10.82;59.75
61506;BME280;47366;51.916;4.574;2023-03-03T13:07:40;102788.53;;;10.09;60.77
61506;BME280;47366;51.916;4.574;2023-03-03T13:18:22;102782.56;;;9.62;61.18
61506;BME280;47366;51.916;4.574;2023-03-03T13:20:59;102777.31;;;9.55;61.68
61506;BME280;47366;51.916;4.574;2023-03-03T13:25:57;102782.16;;;9.43;61.46
61506;BME280;47366;51.916;4.574;2023-03-03T13:30:55;102768.31;;;9.21;61.72
61506;BME280;47366;51.916;4.574;2023-03-03T13:33:33;102787.44;;;9.13;59.88
61506;BME280;47366;51.916;4.574;2023-03-03T13:36:10;102771.56;;;8.98;60.72
61506;BME280;47366;51.916;4.574;2023-03-03T13:38:39;102786.25;;;9.25;59.97
61506;BME280;47366;51.916;4.574;2023-03-03T13:41:18;102776.41;;;9.56;59.44
61506;BME280;47366;51.916;4.574;2023-03-03T13:43:54;102773.06;;;9.79;58.91
61506;BME280;47366;51.916;4.574;2023-03-03T13:52:06;102763.66;;;10.26;57.54
61506;BME280;47366;51.916;4.574;2023-03-03T13:54:59;102763.56;;;10.30;57.26
61506;BME280;47366;51.916;4.574;2023-03-03T13:57:41;102767.03;;;10.34;58.11
61506;BME280;47366;51.916;4.574;2023-03-03T14:03:14;102766.47;;;10.23;58.67
61506;BME280;47366;51.916;4.574;2023-03-03T14:05:49;102756.50;;;9.92;57.92
61506;BME280;47366;51.916;4.574;2023-03-03T14:13:40;102758.34;;;9.57;60.14
61506;BME280;47366;51.916;4.574;2023-03-03T14:16:18;102767.66;;;9.47;59.25
61506;BME280;47366;51.916;4.574;2023-03-03T14:18:54;102771.13;;;9.52;59.67
61506;BME280;47366;51.916;4.574;2023-03-03T14:21:34;102761.66;;;9.68;60.04
61506;BME280;47366;51.916;4.574;2023-03-03T14:27:03;102757.16;;;9.67;59.85
61506;BME280;47366;51.916;4.574;2023-03-03T14:29:33;102756.50;;;9.59;59.37
61506;BME280;47366;51.916;4.574;2023-03-03T14:32:01;102751.47;;;9.44;60.01
61506;BME280;47366;51.916;4.574;2023-03-03T14:34:40;102763.22;;;9.44;59.39
61506;BME280;47366;51.916;4.574;2023-03-03T14:37:43;102758.88;;;9.37;60.15
61506;BME280;47366;51.916;4.574;2023-03-03T14:40:19;102755.41;;;9.32;60.00
61506;BME280;47366;51.916;4.574;2023-03-03T14:42:54;102752.75;;;9.29;60.42
61506;BME280;47366;51.916;4.574;2023-03-03T14:47:45;102749.59;;;9.11;61.21
61506;BME280;47366;51.916;4.574;2023-03-03T14:55:40;102741.91;;;8.95;60.30
61506;BME280;47366;51.916;4.574;2023-03-03T14:58:23;102750.94;;;8.93;60.95
61506;BME280;47366;51.916;4.574;2023-03-03T15:00:49;102744.00;;;8.82;61.56
61506;BME280;47366;51.916;4.574;2023-03-03T15:03:21;102752.09;;;8.82;59.65
61506;BME280;47366;51.916;4.574;2023-03-03T15:05:49;102746.19;;;8.66;59.52
61506;BME280;47366;51.916;4.574;2023-03-03T15:08:31;102749.84;;;8.63;61.32
61506;BME280;47366;51.916;4.574;2023-03-03T15:13:41;102754.69;;;8.49;61.11
61506;BME280;47366;51.916;4.574;2023-03-03T15:16:17;102746.72;;;8.41;61.63
61506;BME280;47366;51.916;4.574;2023-03-03T15:18:59;102751.38;;;8.33;61.05
61506;BME280;47366;51.916;4.574;2023-03-03T15:21:30;102741.56;;;8.29;61.32
61506;BME280;47366;51.916;4.574;2023-03-03T15:24:03;102746.16;;;8.25;62.36
61506;BME280;47366;51.916;4.574;2023-03-03T15:26:55;102737.38;;;8.16;61.86
61506;BME280;47366;51.916;4.574;2023-03-03T15:29:32;102737.38;;;8.16;61.90
61506;BME280;47366;51.916;4.574;2023-03-03T15:35:24;102730.22;;;8.13;62.65
61506;BME280;47366;51.916;4.574;2023-03-03T15:40:47;102731.19;;;8.11;61.62
61506;BME280;47366;51.916;4.574;2023-03-03T15:52:05;102721.38;;;8.05;62.57
61506;BME280;47366;51.916;4.574;2023-03-03T16:00:37;102722.50;;;7.93;61.91
61506;BME280;47366;51.916;4.574;2023-03-03T16:03:09;102730.78;;;7.85;62.76
61506;BME280;47366;51.916;4.574;2023-03-03T16:05:43;102726.31;;;7.83;62.87
61506;BME280;47366;51.916;4.574;2023-03-03T16:08:15;102730.94;;;7.76;62.83
61506;BME280;47366;51.916;4.574;2023-03-03T16:16:21;102725.88;;;7.61;63.34